sensor_id;sensor_type;location;lat;lon;timestamp;pressure;altitude;pressure_sealevel;temperature;humidity
26865;BME280;40618;51.166;10.322;2024-03-06T00:02:23;97501.50;;;3.67;92.21
26865;BME280;40618;51.166;10.322;2024-03-06T00:04:49;97505.78;;;3.67;92.41
26865;BME280;40618;51.166;10.322;2024-03-06T00:07:15;97515.16;;;3.68;92.05
26865;BME280;40618;51.166;10.322;2024-03-06T00:09:41;97517.72;;;3.68;92.45
26865;BME280;40618;51.166;10.322;2024-03-06T00:12:06;97516.84;;;3.69;92.19
26865;BME280;40618;51.166;10.322;2024-03-06T00:14:32;97516.84;;;3.69;92.14
26865;BME280;40618;51.166;10.322;2024-03-06T00:16:58;97521.97;;;3.67;92.55
26865;BME280;40618;51.166;10.322;2024-03-06T00:19:23;97521.97;;;3.67;92.25
26865;BME280;40618;51.166;10.322;2024-03-06T00:21:49;97529.66;;;3.66;92.00
26865;BME280;40618;51.166;10.322;2024-03-06T00:24:15;97533.09;;;3.63;91.85
26865;BME280;40618;51.166;10.322;2024-03-06T00:26:42;97533.09;;;3.60;92.50
26865;BME280;40618;51.166;10.322;2024-03-06T00:29:09;97534.78;;;3.58;92.01
26865;BME280;40618;51.166;10.322;2024-03-06T00:31:35;97535.66;;;3.57;92.55
26865;BME280;40618;51.166;10.322;2024-03-06T00:34:01;97534.78;;;3.56;92.51
26865;BME280;40618;51.166;10.322;2024-03-06T00:36:28;97535.66;;;3.57;92.29
26865;BME280;40618;51.166;10.322;2024-03-06T00:38:54;97544.19;;;3.56;92.30
26865;BME280;40618;51.166;10.322;2024-03-06T00:41:21;97547.59;;;3.58;92.24
26865;BME280;40618;51.166;10.322;2024-03-06T00:43:47;97541.63;;;3.58;92.54
26865;BME280;40618;51.166;10.322;2024-03-06T00:46:13;97544.19;;;3.59;92.01
26865;BME280;40618;51.166;10.322;2024-03-06T00:48:38;97544.19;;;3.59;92.18
26865;BME280;40618;51.166;10.322;2024-03-06T00:51:05;97540.78;;;3.57;92.44
26865;BME280;40618;51.166;10.322;2024-03-06T00:53:36;97550.16;;;3.58;92.38
26865;BME280;40618;51.166;10.322;2024-03-06T00:56:02;97549.31;;;3.59;92.59
26865;BME280;40618;51.166;10.322;2024-03-06T00:58:28;97546.75;;;3.61;92.30
26865;BME280;40618;51.166;10.322;2024-03-06T01:00:55;97548.47;;;3.60;91.96
26865;BME280;40618;51.166;10.322;2024-03-06T01:03:21;97552.72;;;3.61;91.94
26865;BME280;40618;51.166;10.322;2024-03-06T01:05:46;97550.16;;;3.63;92.19
26865;BME280;40618;51.166;10.322;2024-03-06T01:08:12;97556.13;;;3.65;92.62
26865;BME280;40618;51.166;10.322;2024-03-06T01:10:38;97551.88;;;3.64;92.04
26865;BME280;40618;51.166;10.322;2024-03-06T01:13:04;97556.13;;;3.63;92.02
26865;BME280;40618;51.166;10.322;2024-03-06T01:15:30;97558.69;;;3.65;92.18
26865;BME280;40618;51.166;10.322;2024-03-06T01:17:55;97556.16;;;3.66;92.62
26865;BME280;40618;51.166;10.322;2024-03-06T01:20:22;97557.00;;;3.67;92.12
26865;BME280;40618;51.166;10.322;2024-03-06T01:22:48;97563.84;;;3.66;92.31
26865;BME280;40618;51.166;10.322;2024-03-06T01:25:14;97562.13;;;3.65;92.23
26865;BME280;40618;51.166;10.322;2024-03-06T01:27:40;97558.69;;;3.65;92.46
26865;BME280;40618;51.166;10.322;2024-03-06T01:30:06;97553.56;;;3.65;92.26
26865;BME280;40618;51.166;10.322;2024-03-06T01:32:32;97561.25;;;3.65;92.58
26865;BME280;40618;51.166;10.322;2024-03-06T01:34:58;97557.84;;;3.67;92.28
26865;BME280;40618;51.166;10.322;2024-03-06T01:37:24;97563.81;;;3.69;92.57
26865;BME280;40618;51.166;10.322;2024-03-06T01:39:50;97565.53;;;3.70;91.92
26865;BME280;40618;51.166;10.322;2024-03-06T01:42:17;97570.66;;;3.70;92.25
26865;BME280;40618;51.166;10.322;2024-03-06T01:44:43;97570.63;;;3.69;92.50
26865;BME280;40618;51.166;10.322;2024-03-06T01:47:09;97571.50;;;3.71;92.16
26865;BME280;40618;51.166;10.322;2024-03-06T01:49:35;97570.66;;;3.72;92.01
26865;BME280;40618;51.166;10.322;2024-03-06T01:52:02;97574.91;;;3.71;92.61
26865;BME280;40618;51.166;10.322;2024-03-06T01:54:29;97568.94;;;3.72;92.37
26865;BME280;40618;51.166;10.322;2024-03-06T01:56:57;97577.47;;;3.71;92.57
26865;BME280;40618;51.166;10.322;2024-03-06T01:59:28;97574.91;;;3.71;92.44
26865;BME280;40618;51.166;10.322;2024-03-06T02:01:54;97569.78;;;3.71;92.46
26865;BME280;40618;51.166;10.322;2024-03-06T02:04:20;97574.91;;;3.68;92.15
26865;BME280;40618;51.166;10.322;2024-03-06T02:06:46;97581.75;;;3.68;91.96
26865;BME280;40618;51.166;10.322;2024-03-06T02:09:13;97586.00;;;3.67;92.14
26865;BME280;40618;51.166;10.322;2024-03-06T02:11:39;97586.00;;;3.66;92.01
26865;BME280;40618;51.166;10.322;2024-03-06T02:14:05;97580.88;;;3.64;91.99
26865;BME280;40618;51.166;10.322;2024-03-06T02:16:38;97579.19;;;3.66;92.54
26865;BME280;40618;51.166;10.322;2024-03-06T02:19:05;97585.16;;;3.67;92.37
26865;BME280;40618;51.166;10.322;2024-03-06T02:21:30;97585.16;;;3.67;92.41
26865;BME280;40618;51.166;10.322;2024-03-06T02:23:56;97584.31;;;3.68;92.48
26865;BME280;40618;51.166;10.322;2024-03-06T02:26:23;97588.56;;;3.67;92.10
26865;BME280;40618;51.166;10.322;2024-03-06T02:28:52;97592.00;;;3.66;92.57
26865;BME280;40618;51.166;10.322;2024-03-06T02:31:19;97585.16;;;3.67;92.33
26865;BME280;40618;51.166;10.322;2024-03-06T02:33:47;97588.56;;;3.66;92.29
26865;BME280;40618;51.166;10.322;2024-03-06T02:36:14;97580.88;;;3.64;92.43
26865;BME280;40618;51.166;10.322;2024-03-06T02:38:42;97586.84;;;3.65;92.20
26865;BME280;40618;51.166;10.322;2024-03-06T02:41:08;97587.72;;;3.65;92.38
26865;BME280;40618;51.166;10.322;2024-03-06T02:43:35;97586.88;;;3.66;92.22
26865;BME280;40618;51.166;10.322;2024-03-06T02:46:02;97590.28;;;3.64;92.13
26865;BME280;40618;51.166;10.322;2024-03-06T02:48:28;97591.16;;;3.61;92.35
26865;BME280;40618;51.166;10.322;2024-03-06T02:50:55;97599.66;;;3.63;92.09
26865;BME280;40618;51.166;10.322;2024-03-06T02:53:21;97589.41;;;3.63;92.25
26865;BME280;40618;51.166;10.322;2024-03-06T02:55:47;97595.41;;;3.65;92.19
26865;BME280;40618;51.166;10.322;2024-03-06T02:58:14;97595.41;;;3.65;91.93
26865;BME280;40618;51.166;10.322;2024-03-06T03:00:40;97592.84;;;3.64;91.97
26865;BME280;40618;51.166;10.322;2024-03-06T03:03:09;97597.09;;;3.63;92.10
26865;BME280;40618;51.166;10.322;2024-03-06T03:05:37;97599.66;;;3.60;91.91
26865;BME280;40618;51.166;10.322;2024-03-06T03:08:04;97604.78;;;3.59;91.94
26865;BME280;40618;51.166;10.322;2024-03-06T03:10:30;97597.13;;;3.57;92.42
26865;BME280;40618;51.166;10.322;2024-03-06T03:12:56;97594.56;;;3.57;92.16
26865;BME280;40618;51.166;10.322;2024-03-06T03:15:22;97597.13;;;3.55;92.04
26865;BME280;40618;51.166;10.322;2024-03-06T03:17:47;97592.84;;;3.51;92.14
26865;BME280;40618;51.166;10.322;2024-03-06T03:20:13;97597.09;;;3.48;92.06
26865;BME280;40618;51.166;10.322;2024-03-06T03:22:42;97609.03;;;3.46;92.44
26865;BME280;40618;51.166;10.322;2024-03-06T03:25:09;97604.78;;;3.42;91.68
26865;BME280;40618;51.166;10.322;2024-03-06T03:27:37;97615.00;;;3.42;91.98
26865;BME280;40618;51.166;10.322;2024-03-06T03:30:04;97609.03;;;3.43;92.65
26865;BME280;40618;51.166;10.322;2024-03-06T03:32:32;97617.59;;;3.43;92.65
26865;BME280;40618;51.166;10.322;2024-03-06T03:34:58;97615.00;;;3.42;92.11
26865;BME280;40618;51.166;10.322;2024-03-06T03:37:23;97625.25;;;3.40;92.23
26865;BME280;40618;51.166;10.322;2024-03-06T03:39:49;97626.13;;;3.39;92.58
26865;BME280;40618;51.166;10.322;2024-03-06T03:42:14;97624.41;;;3.39;92.08
26865;BME280;40618;51.166;10.322;2024-03-06T03:44:41;97624.41;;;3.43;92.19
26865;BME280;40618;51.166;10.322;2024-03-06T03:47:07;97622.69;;;3.42;92.70
26865;BME280;40618;51.166;10.322;2024-03-06T03:49:32;97632.09;;;3.43;92.36
26865;BME280;40618;51.166;10.322;2024-03-06T03:51:58;97632.09;;;3.41;92.62
26865;BME280;40618;51.166;10.322;2024-03-06T03:54:24;97632.94;;;3.40;92.00
26865;BME280;40618;51.166;10.322;2024-03-06T03:56:50;97638.94;;;3.39;92.26
26865;BME280;40618;51.166;10.322;2024-03-06T03:59:16;97635.50;;;3.40;92.65
26865;BME280;40618;51.166;10.322;2024-03-06T04:01:45;97630.38;;;3.42;92.14
26865;BME280;40618;51.166;10.322;2024-03-06T04:04:12;97635.53;;;3.43;92.20
26865;BME280;40618;51.166;10.322;2024-03-06T04:06:38;97636.38;;;3.42;92.57
26865;BME280;40618;51.166;10.322;2024-03-06T04:09:04;97640.63;;;3.43;92.56
26865;BME280;40618;51.166;10.322;2024-03-06T04:11:30;97645.72;;;3.42;92.67
26865;BME280;40618;51.166;10.322;2024-03-06T04:13:59;97652.56;;;3.39;92.44
26865;BME280;40618;51.166;10.322;2024-03-06T04:16:26;97653.41;;;3.38;92.06
26865;BME280;40618;51.166;10.322;2024-03-06T04:18:51;97650.00;;;3.39;92.74
26865;BME280;40618;51.166;10.322;2024-03-06T04:21:17;97653.41;;;3.40;92.21
26865;BME280;40618;51.166;10.322;2024-03-06T04:23:43;97654.28;;;3.39;92.84
26865;BME280;40618;51.166;10.322;2024-03-06T04:26:15;97655.13;;;3.38;92.54
26865;BME280;40618;51.166;10.322;2024-03-06T04:28:42;97658.53;;;3.38;92.06
26865;BME280;40618;51.166;10.322;2024-03-06T04:31:09;97658.53;;;3.37;92.51
26865;BME280;40618;51.166;10.322;2024-03-06T04:33:35;97663.66;;;3.37;92.12
26865;BME280;40618;51.166;10.322;2024-03-06T04:36:04;97663.66;;;3.38;92.06
26865;BME280;40618;51.166;10.322;2024-03-06T04:38:31;97662.81;;;3.39;92.77
26865;BME280;40618;51.166;10.322;2024-03-06T04:40:57;97670.47;;;3.43;92.31
26865;BME280;40618;51.166;10.322;2024-03-06T04:43:23;97673.88;;;3.42;92.24
26865;BME280;40618;51.166;10.322;2024-03-06T04:45:48;97663.66;;;3.38;92.35
26865;BME280;40618;51.166;10.322;2024-03-06T04:48:14;97672.16;;;3.37;92.64
26865;BME280;40618;51.166;10.322;2024-03-06T04:50:40;97677.28;;;3.37;92.44
26865;BME280;40618;51.166;10.322;2024-03-06T04:53:06;97673.88;;;3.35;92.47
26865;BME280;40618;51.166;10.322;2024-03-06T04:55:32;97666.22;;;3.32;92.11
26865;BME280;40618;51.166;10.322;2024-03-06T04:57:58;97668.78;;;3.34;91.89
26865;BME280;40618;51.166;10.322;2024-03-06T05:00:25;97666.19;;;3.29;92.10
26865;BME280;40618;51.166;10.322;2024-03-06T05:02:50;97673.84;;;3.28;92.31
26865;BME280;40618;51.166;10.322;2024-03-06T05:05:16;97681.53;;;3.25;92.52
26865;BME280;40618;51.166;10.322;2024-03-06T05:07:42;97684.09;;;3.23;92.21
26865;BME280;40618;51.166;10.322;2024-03-06T05:10:08;97676.41;;;3.21;92.24
26865;BME280;40618;51.166;10.322;2024-03-06T05:12:34;97685.78;;;3.21;92.46
26865;BME280;40618;51.166;10.322;2024-03-06T05:15:00;97678.97;;;3.21;92.75
26865;BME280;40618;51.166;10.322;2024-03-06T05:17:26;97682.38;;;3.20;92.09
26865;BME280;40618;51.166;10.322;2024-03-06T05:19:52;97689.22;;;3.20;92.23
26865;BME280;40618;51.166;10.322;2024-03-06T05:22:18;97688.34;;;3.19;92.78
26865;BME280;40618;51.166;10.322;2024-03-06T05:24:43;97692.63;;;3.19;92.01
26865;BME280;40618;51.166;10.322;2024-03-06T05:27:10;97686.63;;;3.18;92.57
26865;BME280;40618;51.166;10.322;2024-03-06T05:29:42;97682.38;;;3.17;92.32
26865;BME280;40618;51.166;10.322;2024-03-06T05:32:08;97694.31;;;3.17;92.44
26865;BME280;40618;51.166;10.322;2024-03-06T05:34:34;97697.72;;;3.16;92.81
26865;BME280;40618;51.166;10.322;2024-03-06T05:37:01;97699.41;;;3.14;92.21
26865;BME280;40618;51.166;10.322;2024-03-06T05:39:29;97699.41;;;3.14;91.72
26865;BME280;40618;51.166;10.322;2024-03-06T05:42:00;97707.09;;;3.14;92.06
26865;BME280;40618;51.166;10.322;2024-03-06T05:44:34;97701.97;;;3.14;92.16
26865;BME280;40618;51.166;10.322;2024-03-06T05:47:02;97713.94;;;3.15;92.23
26865;BME280;40618;51.166;10.322;2024-03-06T05:49:28;97712.22;;;3.15;92.62
26865;BME280;40618;51.166;10.322;2024-03-06T05:51:54;97711.38;;;3.16;92.10
26865;BME280;40618;51.166;10.322;2024-03-06T05:54:21;97713.09;;;3.16;92.55
26865;BME280;40618;51.166;10.322;2024-03-06T05:56:48;97717.31;;;3.15;92.42
26865;BME280;40618;51.166;10.322;2024-03-06T05:59:19;97715.66;;;3.16;92.92
26865;BME280;40618;51.166;10.322;2024-03-06T06:01:45;97720.75;;;3.17;92.02
26865;BME280;40618;51.166;10.322;2024-03-06T06:04:14;97720.75;;;3.16;92.30
26865;BME280;40618;51.166;10.322;2024-03-06T06:06:41;97726.72;;;3.18;92.36
26865;BME280;40618;51.166;10.322;2024-03-06T06:09:06;97730.13;;;3.17;92.06
26865;BME280;40618;51.166;10.322;2024-03-06T06:11:42;97743.78;;;3.16;92.30
26865;BME280;40618;51.166;10.322;2024-03-06T06:14:12;97739.50;;;3.15;92.44
26865;BME280;40618;51.166;10.322;2024-03-06T06:16:39;97741.19;;;3.13;92.39
26865;BME280;40618;51.166;10.322;2024-03-06T06:19:06;97746.31;;;3.13;92.38
26865;BME280;40618;51.166;10.322;2024-03-06T06:21:32;97748.88;;;3.14;93.05
26865;BME280;40618;51.166;10.322;2024-03-06T06:23:58;97751.47;;;3.16;92.62
26865;BME280;40618;51.166;10.322;2024-03-06T06:26:24;97755.72;;;3.17;92.66
26865;BME280;40618;51.166;10.322;2024-03-06T06:28:49;97754.88;;;3.16;92.25
26865;BME280;40618;51.166;10.322;2024-03-06T06:31:15;97767.66;;;3.18;92.72
26865;BME280;40618;51.166;10.322;2024-03-06T06:33:41;97764.28;;;3.19;92.39
26865;BME280;40618;51.166;10.322;2024-03-06T06:36:07;97777.06;;;3.17;92.50
26865;BME280;40618;51.166;10.322;2024-03-06T06:38:32;97772.78;;;3.18;92.23
26865;BME280;40618;51.166;10.322;2024-03-06T06:40:58;97773.63;;;3.17;92.56
26865;BME280;40618;51.166;10.322;2024-03-06T06:43:24;97768.50;;;3.15;92.22
26865;BME280;40618;51.166;10.322;2024-03-06T06:45:49;97771.06;;;3.14;92.11
26865;BME280;40618;51.166;10.322;2024-03-06T06:48:16;97779.59;;;3.13;92.44
26865;BME280;40618;51.166;10.322;2024-03-06T06:50:41;97779.59;;;3.14;92.41
26865;BME280;40618;51.166;10.322;2024-03-06T06:53:07;97782.19;;;3.16;92.68
26865;BME280;40618;51.166;10.322;2024-03-06T06:55:33;97791.53;;;3.17;92.24
26865;BME280;40618;51.166;10.322;2024-03-06T06:57:58;97803.50;;;3.19;92.38
26865;BME280;40618;51.166;10.322;2024-03-06T07:00:24;97800.94;;;3.21;92.70
26865;BME280;40618;51.166;10.322;2024-03-06T07:02:50;97801.81;;;3.21;92.49
26865;BME280;40618;51.166;10.322;2024-03-06T07:05:16;97796.69;;;3.21;92.31
26865;BME280;40618;51.166;10.322;2024-03-06T07:07:42;97800.09;;;3.25;92.88
26865;BME280;40618;51.166;10.322;2024-03-06T07:10:08;97805.22;;;3.25;92.67
26865;BME280;40618;51.166;10.322;2024-03-06T07:12:34;97806.06;;;3.22;92.73
26865;BME280;40618;51.166;10.322;2024-03-06T07:15:00;97801.81;;;3.23;92.36
26865;BME280;40618;51.166;10.322;2024-03-06T07:17:28;97811.22;;;3.24;92.73
26865;BME280;40618;51.166;10.322;2024-03-06T07:19:53;97818.91;;;3.24;92.25
26865;BME280;40618;51.166;10.322;2024-03-06T07:22:19;97816.34;;;3.26;92.38
26865;BME280;40618;51.166;10.322;2024-03-06T07:24:45;97830.00;;;3.29;92.30
26865;BME280;40618;51.166;10.322;2024-03-06T07:27:12;97826.59;;;3.30;92.15
26865;BME280;40618;51.166;10.322;2024-03-06T07:29:38;97833.44;;;3.31;92.32
26865;BME280;40618;51.166;10.322;2024-03-06T07:32:04;97830.03;;;3.32;93.09
26865;BME280;40618;51.166;10.322;2024-03-06T07:34:31;97835.16;;;3.34;92.35
26865;BME280;40618;51.166;10.322;2024-03-06T07:36:57;97833.44;;;3.36;92.85
26865;BME280;40618;51.166;10.322;2024-03-06T07:39:26;97834.31;;;3.38;92.22
26865;BME280;40618;51.166;10.322;2024-03-06T07:41:52;97837.72;;;3.38;92.98
26865;BME280;40618;51.166;10.322;2024-03-06T07:44:19;97844.56;;;3.39;92.63
26865;BME280;40618;51.166;10.322;2024-03-06T07:46:45;97852.25;;;3.41;92.23
26865;BME280;40618;51.166;10.322;2024-03-06T07:49:11;97849.69;;;3.41;92.72
26865;BME280;40618;51.166;10.322;2024-03-06T07:51:36;97854.78;;;3.39;92.77
26865;BME280;40618;51.166;10.322;2024-03-06T07:54:02;97852.22;;;3.39;92.71
26865;BME280;40618;51.166;10.322;2024-03-06T07:56:33;97858.25;;;3.43;92.87
26865;BME280;40618;51.166;10.322;2024-03-06T07:59:00;97856.53;;;3.44;92.18
26865;BME280;40618;51.166;10.322;2024-03-06T08:01:26;97858.25;;;3.45;92.28
26865;BME280;40618;51.166;10.322;2024-03-06T08:03:57;97855.69;;;3.46;92.90
26865;BME280;40618;51.166;10.322;2024-03-06T08:06:23;97858.25;;;3.48;93.10
26865;BME280;40618;51.166;10.322;2024-03-06T08:08:48;97859.97;;;3.50;93.12
26865;BME280;40618;51.166;10.322;2024-03-06T08:11:14;97865.09;;;3.53;92.38
26865;BME280;40618;51.166;10.322;2024-03-06T08:13:40;97859.97;;;3.55;92.97
26865;BME280;40618;51.166;10.322;2024-03-06T08:16:06;97862.53;;;3.56;92.36
26865;BME280;40618;51.166;10.322;2024-03-06T08:18:33;97858.28;;;3.57;92.58
26865;BME280;40618;51.166;10.322;2024-03-06T08:21:01;97861.69;;;3.58;92.83
26865;BME280;40618;51.166;10.322;2024-03-06T08:23:32;97868.53;;;3.57;92.64
26865;BME280;40618;51.166;10.322;2024-03-06T08:25:58;97874.50;;;3.58;92.66
26865;BME280;40618;51.166;10.322;2024-03-06T08:28:25;97877.06;;;3.61;92.89
26865;BME280;40618;51.166;10.322;2024-03-06T08:30:50;97870.28;;;3.64;92.90
26865;BME280;40618;51.166;10.322;2024-03-06T08:33:17;97881.34;;;3.63;92.38
26865;BME280;40618;51.166;10.322;2024-03-06T08:35:43;97883.03;;;3.58;92.65
26865;BME280;40618;51.166;10.322;2024-03-06T08:38:08;97883.06;;;3.60;92.47
26865;BME280;40618;51.166;10.322;2024-03-06T08:40:34;97881.34;;;3.63;92.62
26865;BME280;40618;51.166;10.322;2024-03-06T08:43:00;97885.63;;;3.64;92.83
26865;BME280;40618;51.166;10.322;2024-03-06T08:45:26;97895.88;;;3.67;92.42
26865;BME280;40618;51.166;10.322;2024-03-06T08:47:52;97893.34;;;3.70;92.69
26865;BME280;40618;51.166;10.322;2024-03-06T08:50:20;97890.81;;;3.73;92.87
26865;BME280;40618;51.166;10.322;2024-03-06T08:52:46;97899.34;;;3.77;92.66
26865;BME280;40618;51.166;10.322;2024-03-06T08:55:12;97905.34;;;3.82;92.79
26865;BME280;40618;51.166;10.322;2024-03-06T08:57:39;97909.63;;;3.86;92.32
26865;BME280;40618;51.166;10.322;2024-03-06T09:00:06;97913.06;;;3.90;92.49
26865;BME280;40618;51.166;10.322;2024-03-06T09:02:40;97910.50;;;3.92;92.42
26865;BME280;40618;51.166;10.322;2024-03-06T09:05:09;97915.63;;;3.95;92.65
26865;BME280;40618;51.166;10.322;2024-03-06T09:07:37;97909.66;;;3.94;92.33
26865;BME280;40618;51.166;10.322;2024-03-06T09:10:08;97916.50;;;3.98;92.83
26865;BME280;40618;51.166;10.322;2024-03-06T09:12:38;97913.13;;;4.04;92.64
26865;BME280;40618;51.166;10.322;2024-03-06T09:15:05;97914.00;;;4.06;92.70
26865;BME280;40618;51.166;10.322;2024-03-06T09:17:32;97920.84;;;4.10;92.74
26865;BME280;40618;51.166;10.322;2024-03-06T09:19:58;97912.31;;;4.14;92.69
26865;BME280;40618;51.166;10.322;2024-03-06T09:22:24;97924.28;;;4.20;92.76
26865;BME280;40618;51.166;10.322;2024-03-06T09:24:49;97923.44;;;4.30;92.78
26865;BME280;40618;51.166;10.322;2024-03-06T09:27:15;97927.75;;;4.48;92.98
26865;BME280;40618;51.166;10.322;2024-03-06T09:29:42;97931.19;;;4.67;92.85
26865;BME280;40618;51.166;10.322;2024-03-06T09:32:08;97932.94;;;4.76;92.61
26865;BME280;40618;51.166;10.322;2024-03-06T09:34:34;97931.22;;;4.81;92.61
26865;BME280;40618;51.166;10.322;2024-03-06T09:36:59;97931.22;;;4.84;92.55
26865;BME280;40618;51.166;10.322;2024-03-06T09:39:26;97941.47;;;4.97;93.13
26865;BME280;40618;51.166;10.322;2024-03-06T09:41:52;97935.50;;;5.12;92.95
26865;BME280;40618;51.166;10.322;2024-03-06T09:44:20;97944.03;;;5.31;92.82
26865;BME280;40618;51.166;10.322;2024-03-06T09:46:48;97943.16;;;5.46;93.34
26865;BME280;40618;51.166;10.322;2024-03-06T09:49:27;97949.13;;;5.66;92.79
26865;BME280;40618;51.166;10.322;2024-03-06T09:51:54;97946.47;;;5.83;92.66
26865;BME280;40618;51.166;10.322;2024-03-06T09:54:23;97943.03;;;6.04;92.66
26865;BME280;40618;51.166;10.322;2024-03-06T09:56:51;97954.94;;;6.21;92.85
26865;BME280;40618;51.166;10.322;2024-03-06T09:59:17;97954.84;;;6.38;92.56
26865;BME280;40618;51.166;10.322;2024-03-06T10:01:58;97953.16;;;6.40;92.05
26865;BME280;40618;51.166;10.322;2024-03-06T10:04:28;97957.50;;;6.22;91.34
26865;BME280;40618;51.166;10.322;2024-03-06T10:06:59;97955.88;;;6.04;91.44
26865;BME280;40618;51.166;10.322;2024-03-06T10:09:27;97962.72;;;5.96;91.10
26865;BME280;40618;51.166;10.322;2024-03-06T10:11:53;97966.19;;;5.84;91.16
26865;BME280;40618;51.166;10.322;2024-03-06T10:14:21;97962.78;;;5.74;90.82
26865;BME280;40618;51.166;10.322;2024-03-06T10:17:00;97967.94;;;5.71;90.62
26865;BME280;40618;51.166;10.322;2024-03-06T10:19:30;97969.63;;;5.80;90.88
26865;BME280;40618;51.166;10.322;2024-03-06T10:21:57;97969.59;;;5.86;91.00
26865;BME280;40618;51.166;10.322;2024-03-06T10:24:27;97965.31;;;5.90;91.17
26865;BME280;40618;51.166;10.322;2024-03-06T10:26:58;97973.03;;;5.98;90.88
26865;BME280;40618;51.166;10.322;2024-03-06T10:29:28;97973.03;;;5.99;91.29
26865;BME280;40618;51.166;10.322;2024-03-06T10:31:58;97965.28;;;6.02;90.07
26865;BME280;40618;51.166;10.322;2024-03-06T10:34:26;97979.00;;;6.01;90.69
26865;BME280;40618;51.166;10.322;2024-03-06T10:37:01;97974.72;;;5.94;90.54
26865;BME280;40618;51.166;10.322;2024-03-06T10:39:33;97979.84;;;5.97;90.55
26865;BME280;40618;51.166;10.322;2024-03-06T10:42:02;97981.56;;;6.07;90.19
26865;BME280;40618;51.166;10.322;2024-03-06T10:44:28;97983.22;;;6.18;90.79
26865;BME280;40618;51.166;10.322;2024-03-06T10:46:59;97978.91;;;6.24;90.36
26865;BME280;40618;51.166;10.322;2024-03-06T10:49:29;97985.81;;;6.22;90.11
26865;BME280;40618;51.166;10.322;2024-03-06T10:52:01;97989.22;;;6.20;89.81
26865;BME280;40618;51.166;10.322;2024-03-06T10:54:32;97996.97;;;6.15;90.19
26865;BME280;40618;51.166;10.322;2024-03-06T10:57:04;97985.84;;;6.12;89.63
26865;BME280;40618;51.166;10.322;2024-03-06T10:59:30;97991.84;;;6.10;89.93
26865;BME280;40618;51.166;10.322;2024-03-06T11:01:56;97997.81;;;6.16;90.14
26865;BME280;40618;51.166;10.322;2024-03-06T11:04:26;97997.78;;;6.20;89.89
26865;BME280;40618;51.166;10.322;2024-03-06T11:06:59;98001.22;;;6.22;89.54
26865;BME280;40618;51.166;10.322;2024-03-06T11:09:27;98000.38;;;6.20;89.51
26865;BME280;40618;51.166;10.322;2024-03-06T11:11:54;97999.56;;;6.15;89.46
26865;BME280;40618;51.166;10.322;2024-03-06T11:14:22;98002.09;;;6.14;89.29
26865;BME280;40618;51.166;10.322;2024-03-06T11:19:28;97996.97;;;6.17;89.33
26865;BME280;40618;51.166;10.322;2024-03-06T11:21:58;97996.09;;;6.21;89.66
26865;BME280;40618;51.166;10.322;2024-03-06T11:24:34;97997.75;;;6.30;89.64
26865;BME280;40618;51.166;10.322;2024-03-06T11:27:04;97996.03;;;6.36;89.14
26865;BME280;40618;51.166;10.322;2024-03-06T11:30:07;98000.28;;;6.40;89.27
26865;BME280;40618;51.166;10.322;2024-03-06T11:32:57;98003.72;;;6.44;88.72
26865;BME280;40618;51.166;10.322;2024-03-06T11:35:36;98002.81;;;6.45;89.05
26865;BME280;40618;51.166;10.322;2024-03-06T11:38:05;98000.28;;;6.47;88.53
26865;BME280;40618;51.166;10.322;2024-03-06T11:40:31;97996.81;;;6.49;88.64
26865;BME280;40618;51.166;10.322;2024-03-06T11:43:26;98000.25;;;6.48;88.53
26865;BME280;40618;51.166;10.322;2024-03-06T11:45:52;97999.38;;;6.52;88.79
26865;BME280;40618;51.166;10.322;2024-03-06T11:48:19;97996.81;;;6.54;88.37
26865;BME280;40618;51.166;10.322;2024-03-06T11:50:47;98006.22;;;6.55;88.25
26865;BME280;40618;51.166;10.322;2024-03-06T11:53:14;98008.81;;;6.52;88.63
26865;BME280;40618;51.166;10.322;2024-03-06T11:55:42;98002.81;;;6.51;88.29
26865;BME280;40618;51.166;10.322;2024-03-06T11:58:09;97992.53;;;6.48;88.24
26865;BME280;40618;51.166;10.322;2024-03-06T12:00:37;98007.97;;;6.51;88.45
26865;BME280;40618;51.166;10.322;2024-03-06T12:03:03;98001.97;;;6.51;87.91
26865;BME280;40618;51.166;10.322;2024-03-06T12:05:32;98001.09;;;6.52;88.74
26865;BME280;40618;51.166;10.322;2024-03-06T12:07:57;98004.53;;;6.52;87.85
26865;BME280;40618;51.166;10.322;2024-03-06T12:10:25;97997.69;;;6.48;88.28
26865;BME280;40618;51.166;10.322;2024-03-06T12:12:51;98002.81;;;6.45;87.91
26865;BME280;40618;51.166;10.322;2024-03-06T12:15:18;97993.41;;;6.44;88.23
26865;BME280;40618;51.166;10.322;2024-03-06T12:17:45;97998.53;;;6.50;87.93
26865;BME280;40618;51.166;10.322;2024-03-06T12:20:14;98002.75;;;6.57;88.22
26865;BME280;40618;51.166;10.322;2024-03-06T12:22:53;98004.47;;;6.63;88.02
26865;BME280;40618;51.166;10.322;2024-03-06T12:25:22;98005.31;;;6.65;87.39
26865;BME280;40618;51.166;10.322;2024-03-06T12:27:50;97994.19;;;6.63;87.68
26865;BME280;40618;51.166;10.322;2024-03-06T12:30:18;98006.22;;;6.58;86.92
26865;BME280;40618;51.166;10.322;2024-03-06T12:32:44;98005.38;;;6.53;88.00
26865;BME280;40618;51.166;10.322;2024-03-06T12:35:24;97998.53;;;6.50;87.40
26865;BME280;40618;51.166;10.322;2024-03-06T12:37:52;98006.22;;;6.53;87.96
26865;BME280;40618;51.166;10.322;2024-03-06T12:40:20;97999.41;;;6.51;87.74
26865;BME280;40618;51.166;10.322;2024-03-06T12:42:46;98001.09;;;6.55;87.29
26865;BME280;40618;51.166;10.322;2024-03-06T12:45:12;98007.91;;;6.60;87.75
26865;BME280;40618;51.166;10.322;2024-03-06T12:47:42;97995.88;;;6.66;87.34
26865;BME280;40618;51.166;10.322;2024-03-06T12:50:09;98002.69;;;6.74;87.84
26865;BME280;40618;51.166;10.322;2024-03-06T12:52:38;97998.38;;;6.81;86.91
26865;BME280;40618;51.166;10.322;2024-03-06T12:55:04;98003.50;;;6.83;87.02
26865;BME280;40618;51.166;10.322;2024-03-06T12:57:34;97995.72;;;6.89;86.84
26865;BME280;40618;51.166;10.322;2024-03-06T13:00:00;98000.88;;;6.92;87.64
26865;BME280;40618;51.166;10.322;2024-03-06T13:02:26;97990.53;;;6.97;87.03
26865;BME280;40618;51.166;10.322;2024-03-06T13:04:54;97999.09;;;6.95;87.53